Time;durP1;ratioP1;P1;durP2;ratioP2;P2;SDS_P1;SDS_P2;PMS_P1;PMS_P2;Temp;Humidity;BMP_temperature;BMP_pressure;BME280_temperature;BME280_humidity;BME280_pressure;Samples;Min_cycle;Max_cycle;Signal;HPM_P1;HPM_P2
2022/11/10 00:00:04;;;;;;;11.27;2.00;;;;;;;14.80;70.42;101688.75;5009781;28;20049;-43
2022/11/10 00:02:30;;;;;;;11.70;1.85;;;;;;;14.77;70.04;101700.97;5009510;28;20034;-44
2022/11/10 00:04:55;;;;;;;15.50;2.17;;;;;;;14.66;70.38;101700.88;5009797;28;20018;-46
2022/11/10 00:07:24;;;;;;;15.77;2.40;;;;;;;14.68;70.01;101693.03;5009782;28;20033;-44
2022/11/10 00:09:51;;;;;;;12.73;1.90;;;;;;;14.56;70.15;101693.78;5009817;28;20025;-45
2022/11/10 00:12:16;;;;;;;9.95;1.70;;;;;;;14.52;70.01;101698.09;5009373;28;20080;-44
2022/11/10 00:17:26;;;;;;;9.23;1.90;;;;;;;14.44;70.42;101706.78;5009963;28;20545;-46
2022/11/10 00:19:51;;;;;;;11.70;2.03;;;;;;;14.46;70.54;101702.41;5009343;28;20034;-43
2022/11/10 00:22:16;;;;;;;12.57;1.98;;;;;;;14.44;70.43;101712.91;5009564;28;20113;-43
2022/11/10 00:24:43;;;;;;;13.85;2.28;;;;;;;14.44;70.43;101712.03;5009665;28;20097;-42
2022/11/10 00:27:09;;;;;;;12.23;1.70;;;;;;;14.45;70.87;101711.16;5009994;28;20405;-43
2022/11/10 00:29:34;;;;;;;16.88;2.60;;;;;;;14.39;71.63;101709.34;5007904;28;20018;-47
2022/11/10 00:31:59;;;;;;;12.23;1.90;;;;;;;14.54;71.79;101713.88;5009266;28;20177;-42
2022/11/10 00:34:25;;;;;;;18.02;2.40;;;;;;;14.36;73.15;101706.66;5009309;28;20033;-44
2022/11/10 00:36:50;;;;;;;14.32;1.90;;;;;;;14.74;72.00;101704.47;5010413;28;20513;-42
2022/11/10 00:39:15;;;;;;;12.15;2.25;;;;;;;14.49;72.80;101705.94;5012845;28;20093;-43
2022/11/10 00:41:41;;;;;;;12.02;2.05;;;;;;;14.82;71.68;101715.88;5011413;28;20470;-43
2022/11/10 00:44:06;;;;;;;10.88;1.90;;;;;;;14.92;71.15;101711.63;5012796;28;20026;-44
2022/11/10 00:46:32;;;;;;;13.30;2.03;;;;;;;14.89;70.68;101719.44;5012889;28;20053;-45
2022/11/10 00:48:57;;;;;;;14.27;2.17;;;;;;;14.75;71.00;101715.84;5012935;28;20061;-45
2022/11/10 00:51:27;;;;;;;12.38;2.00;;;;;;;14.78;70.69;101718.47;5012420;28;20129;-42
2022/11/10 00:53:53;;;;;;;9.20;1.80;;;;;;;14.77;70.50;101727.22;5012888;28;20500;-43
2022/11/10 00:56:19;;;;;;;13.60;2.08;;;;;;;14.71;70.25;101729.78;5012558;28;20026;-44
2022/11/10 00:58:45;;;;;;;12.48;2.15;;;;;;;14.67;70.33;101734.13;5012697;28;20032;-44
2022/11/10 01:01:11;;;;;;;17.23;2.47;;;;;;;14.55;70.71;101734.88;5012595;28;20026;-48
2022/11/10 01:03:37;;;;;;;16.85;2.83;;;;;;;14.44;71.26;101728.63;5012344;28;20030;-43
2022/11/10 01:06:08;;;;;;;10.90;2.20;;;;;;;14.53;70.45;101733.97;5012450;28;20026;-44
2022/11/10 01:08:35;;;;;;;10.82;1.90;;;;;;;14.41;70.77;101728.59;5012498;28;20025;-43
2022/11/10 01:11:02;;;;;;;10.68;2.42;;;;;;;14.47;70.67;101728.66;5012039;28;20489;-47
2022/11/10 01:13:28;;;;;;;14.48;2.40;;;;;;;14.46;70.94;101732.13;5012478;28;20406;-42
2022/11/10 01:15:53;;;;;;;9.88;2.10;;;;;;;14.45;71.41;101742.63;5012532;28;20038;-43
2022/11/10 01:18:19;;;;;;;12.77;2.50;;;;;;;14.49;71.52;101742.69;5012150;28;20037;-43
2022/11/10 01:20:50;;;;;;;14.68;2.70;;;;;;;14.59;71.29;101746.28;5011821;28;20428;-43
2022/11/10 01:23:15;;;;;;;15.48;2.40;;;;;;;14.59;70.83;101739.28;5012448;28;20038;-48
2022/11/10 01:25:40;;;;;;;13.52;2.40;;;;;;;14.52;70.97;101740.06;5011952;28;20050;-44
2022/11/10 01:28:06;;;;;;;10.90;2.38;;;;;;;14.52;70.96;101741.81;5012034;28;20026;-44
2022/11/10 01:30:31;;;;;;;14.40;2.70;;;;;;;14.46;70.83;101734.75;5011667;28;20026;-43
2022/11/10 01:32:56;;;;;;;17.13;2.53;;;;;;;14.38;71.20;101746.06;5012222;28;20524;-42
2022/11/10 01:35:22;;;;;;;15.85;2.45;;;;;;;14.43;71.44;101745.25;5011952;28;20101;-49
2022/11/10 01:37:50;;;;;;;13.18;2.88;;;;;;;14.41;71.64;101746.06;5012058;28;20099;-42
2022/11/10 01:40:15;;;;;;;16.95;2.65;;;;;;;14.44;71.01;101741.75;5011584;28;20026;-44
2022/11/10 01:42:54;;;;;;;17.55;3.10;;;;;;;14.36;71.45;101750.34;5011921;28;20026;-46
2022/11/10 01:45:22;;;;;;;16.98;2.58;;;;;;;14.21;72.08;101749.28;5012329;28;20486;-41
2022/11/10 01:47:53;;;;;;;14.93;2.70;;;;;;;14.32;71.74;101751.19;5011330;28;20465;-43
2022/11/10 01:50:20;;;;;;;16.20;2.95;;;;;;;14.37;72.09;101760.00;5011328;28;20029;-45
2022/11/10 01:52:49;;;;;;;15.90;3.00;;;;;;;14.48;71.67;101763.66;5011768;28;20029;-42
2022/11/10 01:55:15;;;;;;;20.17;3.10;;;;;;;14.45;71.43;101768.88;5012898;28;20025;-44
2022/11/10 01:57:41;;;;;;;18.90;2.80;;;;;;;14.44;71.05;101768.00;5014706;28;20088;-44
2022/11/10 02:00:07;;;;;;;16.70;3.05;;;;;;;14.32;71.31;101772.19;5012485;28;20058;-46
2022/11/10 02:02:41;;;;;;;14.73;2.70;;;;;;;14.29;71.06;101782.63;5011122;28;20482;-44
2022/11/10 02:05:07;;;;;;;19.00;3.25;;;;;;;14.26;70.94;101782.59;5011702;28;20022;-44
2022/11/10 02:07:33;;;;;;;14.23;2.80;;;;;;;14.16;71.04;101776.31;5011562;28;20036;-46
2022/11/10 02:10:01;;;;;;;12.00;2.35;;;;;;;14.21;70.64;101786.00;5011275;28;20018;-44
2022/11/10 02:12:38;;;;;;;13.00;2.53;;;;;;;14.11;71.13;101796.38;5011451;28;20032;-44
2022/11/10 02:15:06;;;;;;;13.13;2.40;;;;;;;14.14;70.74;101799.94;5011455;28;20026;-43
2022/11/10 02:17:32;;;;;;;16.15;2.60;;;;;;;14.06;70.79;101803.31;5011173;28;20103;-44
2022/11/10 02:20:03;;;;;;;12.73;2.60;;;;;;;13.95;71.57;101795.28;5010938;28;20475;-42
2022/11/10 02:22:32;;;;;;;15.38;3.00;;;;;;;13.97;71.19;101811.91;5011651;28;20030;-45
2022/11/10 02:24:57;;;;;;;14.55;2.60;;;;;;;13.90;71.32;101817.94;5011357;28;20076;-43
2022/11/10 02:27:23;;;;;;;16.92;3.00;;;;;;;13.75;72.98;101822.94;5011468;28;20553;-44
2022/11/10 02:29:48;;;;;;;12.98;2.60;;;;;;;13.98;71.85;101820.66;5011785;28;20045;-43
2022/11/10 02:32:14;;;;;;;16.20;2.42;;;;;;;13.90;72.27;101817.94;5011619;28;20034;-43
2022/11/10 02:34:39;;;;;;;16.33;2.78;;;;;;;13.94;71.99;101821.47;5010982;28;20079;-46
2022/11/10 02:37:05;;;;;;;17.23;2.67;;;;;;;13.79;72.96;101823.00;5010854;28;20034;-48
2022/11/10 02:39:30;;;;;;;15.23;2.60;;;;;;;13.96;72.22;101831.13;5010500;28;20025;-44
2022/11/10 02:41:55;;;;;;;20.33;2.60;;;;;;;13.92;72.01;101831.94;5010659;28;20064;-46
2022/11/10 02:44:21;;;;;;;16.20;2.70;;;;;;;14.00;71.62;101830.31;5010859;28;20397;-43
2022/11/10 02:46:46;;;;;;;14.70;2.20;;;;;;;13.84;72.72;101836.19;5010580;28;20026;-44
2022/11/10 02:49:11;;;;;;;15.85;2.38;;;;;;;13.88;72.40;101837.13;5010877;28;20054;-42
2022/11/10 02:51:37;;;;;;;16.58;2.30;;;;;;;13.98;71.86;101839.88;5010358;28;20030;-43
2022/11/10 02:54:02;;;;;;;16.25;3.08;;;;;;;13.96;71.47;101843.38;5010236;28;20072;-47
2022/11/10 02:56:27;;;;;;;11.77;2.63;;;;;;;13.95;71.29;101844.22;5010525;28;20022;-44
2022/11/10 02:58:52;;;;;;;21.05;2.72;;;;;;;13.81;72.36;101844.88;5010261;28;20449;-47
2022/11/10 03:01:18;;;;;;;14.65;2.75;;;;;;;13.85;71.90;101847.53;5010237;28;20087;-44
2022/11/10 03:03:43;;;;;;;14.88;2.72;;;;;;;13.85;71.47;101851.03;5010542;28;20536;-43
2022/11/10 03:06:08;;;;;;;14.05;2.65;;;;;;;13.87;71.58;101859.81;5010462;28;20045;-47
2022/11/10 03:08:34;;;;;;;16.30;2.58;;;;;;;13.79;72.04;101861.44;5010126;28;20530;-45
2022/11/10 03:10:59;;;;;;;15.05;2.67;;;;;;;13.81;72.14;101858.00;5010264;28;20033;-44
2022/11/10 03:13:24;;;;;;;18.02;2.80;;;;;;;13.75;72.04;101865.75;5010275;28;20026;-44
2022/11/10 03:15:51;;;;;;;16.15;2.67;;;;;;;13.81;71.90;101864.97;5010444;28;20040;-43
2022/11/10 03:18:16;;;;;;;15.10;2.90;;;;;;;13.75;72.12;101860.50;5010437;28;20109;-44
2022/11/10 03:20:41;;;;;;;19.90;2.80;;;;;;;13.57;72.86;101856.72;5032265;22;20130;-46
2022/11/10 03:23:07;;;;;;;17.48;2.67;;;;;;;13.72;71.82;101864.84;5010620;28;20050;-43
2022/11/10 03:25:33;;;;;;;18.10;3.17;;;;;;;13.58;72.78;101872.47;5010966;28;20552;-43
2022/11/10 03:27:59;;;;;;;14.75;2.75;;;;;;;13.70;72.44;101866.53;4993573;28;20028;-43
2022/11/10 03:30:24;;;;;;;19.75;2.50;;;;;;;13.68;72.71;101876.09;5010814;28;20022;-44
2022/11/10 03:32:50;;;;;;;15.65;2.58;;;;;;;13.53;73.14;101868.88;5011081;28;20537;-45
2022/11/10 03:35:15;;;;;;;21.55;2.85;;;;;;;13.74;72.80;101869.22;5011708;28;20084;-43
2022/11/10 03:37:41;;;;;;;18.45;2.97;;;;;;;13.78;72.43;101868.41;5011565;28;20029;-43
2022/11/10 03:40:07;;;;;;;14.88;2.60;;;;;;;13.73;73.24;101875.31;5011524;28;20026;-48
2022/11/10 03:42:32;;;;;;;16.38;2.90;;;;;;;13.68;73.28;101881.34;5010378;28;20033;-44
2022/11/10 03:44:58;;;;;;;20.17;2.72;;;;;;;13.46;73.99;101876.59;5011574;28;20100;-43
2022/11/10 03:47:23;;;;;;;17.38;2.72;;;;;;;13.75;72.96;101877.97;5012308;28;20079;-44
2022/11/10 03:49:48;;;;;;;15.48;2.50;;;;;;;13.86;72.05;101888.63;5012478;28;20501;-43
2022/11/10 03:52:14;;;;;;;14.65;2.22;;;;;;;13.81;71.70;101886.81;5011938;28;20037;-43
2022/11/10 03:54:39;;;;;;;19.95;2.90;;;;;;;13.63;72.96;101890.88;5012617;28;20029;-45
2022/11/10 03:57:05;;;;;;;13.95;2.30;;;;;;;13.85;72.55;101894.72;5012304;28;20026;-44
2022/11/10 03:59:30;;;;;;;18.00;2.75;;;;;;;13.81;72.23;101897.31;5010901;28;20375;-44
2022/11/10 04:01:55;;;;;;;17.00;2.55;;;;;;;13.79;72.18;101899.00;5010887;28;20101;-44
2022/11/10 04:09:49;;;;;;;12.05;2.10;;;;;;;13.65;73.18;101913.63;5012013;28;20574;-43
2022/11/10 04:17:47;;;;;;;18.38;2.90;;;;;;;13.78;71.84;101927.84;5014329;28;20044;-43
2022/11/10 04:20:13;;;;;;;15.55;2.83;;;;;;;13.61;72.60;101921.41;5013929;28;20032;-44
2022/11/10 04:25:22;;;;;;;17.73;3.10;;;;;;;13.64;72.98;101919.72;5014962;28;20040;-44
2022/11/10 04:27:47;;;;;;;19.85;3.50;;;;;;;13.58;73.16;101937.09;5015203;28;20018;-43
2022/11/10 04:30:13;;;;;;;22.33;3.30;;;;;;;13.60;72.95;101933.63;4995947;28;20510;-47
2022/11/10 04:32:38;;;;;;;21.40;3.10;;;;;;;13.47;73.86;101934.28;5013634;28;20344;-45
2022/11/10 04:35:03;;;;;;;35.38;4.35;;;;;;;13.46;74.24;101944.72;5013877;28;20033;-46
2022/11/10 04:37:29;;;;;;;17.77;3.20;;;;;;;13.51;74.14;101943.94;5013752;28;20398;-43
2022/11/10 04:39:54;;;;;;;15.40;2.83;;;;;;;13.81;72.43;101948.84;5013169;28;20030;-43
2022/11/10 04:42:19;;;;;;;21.33;3.83;;;;;;;13.50;73.84;101959.63;5013157;28;20030;-45
2022/11/10 04:44:45;;;;;;;19.05;3.35;;;;;;;13.58;73.48;101955.41;5012820;28;20029;-44
2022/11/10 04:47:10;;;;;;;18.23;3.25;;;;;;;13.60;73.90;101957.19;5013545;28;20122;-42
2022/11/10 04:49:35;;;;;;;19.52;3.50;;;;;;;13.63;73.23;101965.13;5013297;28;20025;-42
2022/11/10 04:52:00;;;;;;;18.70;3.33;;;;;;;13.58;73.77;101968.53;5013026;28;20017;-42
2022/11/10 04:54:26;;;;;;;21.65;3.88;;;;;;;13.64;73.31;101974.75;5013977;28;20435;-42
2022/11/10 04:56:51;;;;;;;19.08;3.35;;;;;;;13.61;73.14;101974.69;5013609;28;20030;-42
2022/11/10 04:59:16;;;;;;;19.85;3.15;;;;;;;13.80;72.42;101975.91;5013938;28;20070;-44
2022/11/10 05:01:42;;;;;;;22.58;3.65;;;;;;;13.73;72.43;101972.28;5014359;28;20299;-42
2022/11/10 05:04:07;;;;;;;18.60;3.30;;;;;;;13.60;72.05;101962.44;5014626;28;20022;-45
2022/11/10 05:06:32;;;;;;;17.40;3.00;;;;;;;13.64;72.54;101964.28;5014046;28;20449;-42
2022/11/10 05:08:57;;;;;;;19.40;3.53;;;;;;;13.68;72.45;101967.81;5014808;28;20022;-45
2022/11/10 05:11:23;;;;;;;19.45;4.00;;;;;;;13.62;72.90;101979.06;5013288;28;20026;-38
2022/11/10 05:13:48;;;;;;;15.35;3.53;;;;;;;13.72;72.02;101983.63;5013640;28;20441;-39
2022/11/10 05:16:13;;;;;;;20.13;4.05;;;;;;;13.56;72.48;101981.59;5013873;28;20041;-40
2022/11/10 05:18:40;;;;;;;20.35;4.00;;;;;;;13.60;72.22;101983.41;5014431;28;20079;-40
2022/11/10 05:21:05;;;;;;;18.60;4.15;;;;;;;13.57;72.97;101982.47;5014077;28;20157;-38
2022/11/10 05:23:40;;;;;;;19.65;4.25;;;;;;;13.51;73.07;101977.13;5013860;28;20042;-39
2022/11/10 05:26:12;;;;;;;20.25;4.18;;;;;;;13.36;74.01;101993.41;5014367;28;20029;-38
2022/11/10 05:28:39;;;;;;;15.52;4.10;;;;;;;13.54;72.81;102000.78;5014274;28;20119;-39
2022/11/10 05:31:05;;;;;;;20.75;4.30;;;;;;;13.33;73.46;101995.97;5011994;28;20029;-39
2022/11/10 05:33:31;;;;;;;20.05;3.88;;;;;;;13.60;72.51;101999.13;5012456;28;20030;-43
2022/11/10 05:35:56;;;;;;;25.20;4.32;;;;;;;13.61;72.63;102003.50;5012127;28;20030;-39
2022/11/10 05:38:22;;;;;;;18.83;3.92;;;;;;;13.63;72.51;102007.06;5012017;28;20040;-40
2022/11/10 05:40:47;;;;;;;16.98;4.22;;;;;;;13.63;72.42;101999.19;5011585;28;20058;-40
2022/11/10 05:43:13;;;;;;;22.58;3.85;;;;;;;13.53;72.79;101994.66;5012156;28;20025;-42
2022/11/10 05:45:38;;;;;;;24.35;4.35;;;;;;;13.42;73.87;102008.38;5012128;28;20037;-39
2022/11/10 05:48:04;;;;;;;20.85;4.40;;;;;;;13.57;73.06;101991.22;5012135;28;20028;-38
2022/11/10 05:50:29;;;;;;;17.52;3.90;;;;;;;13.66;72.52;101991.38;5011557;28;20033;-40
2022/11/10 05:52:55;;;;;;;21.83;3.80;;;;;;;13.36;73.49;102004.78;5012233;28;20275;-38
2022/11/10 05:55:23;;;;;;;20.38;4.10;;;;;;;13.55;73.26;102007.75;5012277;28;20080;-39
2022/11/10 05:57:50;;;;;;;16.88;3.53;;;;;;;13.66;72.51;102003.63;5012328;28;20029;-39
2022/11/10 06:00:17;;;;;;;19.00;3.45;;;;;;;13.50;73.23;102009.41;5011504;28;20026;-40
2022/11/10 06:02:43;;;;;;;18.10;3.90;;;;;;;13.49;74.10;102020.72;5011827;28;20025;-40
2022/11/10 06:05:09;;;;;;;19.48;3.65;;;;;;;13.54;73.05;102019.97;5012182;28;20101;-39
2022/11/10 06:07:37;;;;;;;16.67;3.22;;;;;;;13.60;73.30;102025.31;5011928;28;20026;-38
2022/11/10 06:10:02;;;;;;;18.25;3.63;;;;;;;13.35;74.12;102021.38;5011645;28;20362;-42
2022/11/10 06:12:31;;;;;;;18.23;3.15;;;;;;;13.59;73.66;102034.06;5011724;28;20577;-39
2022/11/10 06:14:59;;;;;;;15.30;3.30;;;;;;;13.59;73.42;102041.03;4994078;28;20064;-39
2022/11/10 06:17:25;;;;;;;14.10;3.10;;;;;;;13.73;72.76;102040.44;5012304;28;20022;-39
2022/11/10 06:19:50;;;;;;;18.98;3.10;;;;;;;13.57;73.28;102035.75;5012052;28;20069;-40
2022/11/10 06:22:16;;;;;;;13.05;3.17;;;;;;;13.66;73.33;102042.94;5013452;28;20052;-38
2022/11/10 06:24:41;;;;;;;20.75;3.40;;;;;;;13.73;72.92;102036.91;5013558;28;20029;-39
2022/11/10 06:27:07;;;;;;;18.23;3.03;;;;;;;13.45;74.39;102042.50;5013716;28;20021;-39
2022/11/10 06:29:32;;;;;;;17.80;3.10;;;;;;;13.73;73.08;102052.66;5013081;28;20092;-39
2022/11/10 06:31:57;;;;;;;20.85;3.28;;;;;;;13.71;72.88;102065.75;5012639;28;20471;-41
2022/11/10 06:34:23;;;;;;;15.32;3.40;;;;;;;13.79;72.07;102066.75;5011594;28;20466;-40
2022/11/10 06:36:48;;;;;;;17.83;4.00;;;;;;;13.69;72.60;102074.41;4994230;28;20029;-42
2022/11/10 06:39:14;;;;;;;23.65;3.85;;;;;;;13.54;73.24;102068.88;5011361;28;20026;-43
2022/11/10 06:41:39;;;;;;;22.80;4.38;;;;;;;13.44;74.17;102073.03;5011475;28;20470;-39
2022/11/10 06:44:05;;;;;;;24.85;4.63;;;;;;;13.56;73.76;102075.91;5011590;28;20109;-38
2022/11/10 06:46:30;;;;;;;16.67;3.67;;;;;;;13.68;73.46;102086.63;5011493;28;20112;-40
2022/11/10 06:48:56;;;;;;;16.55;3.90;;;;;;;13.76;73.15;102106.03;5012631;28;20552;-43
2022/11/10 06:51:21;;;;;;;19.23;3.90;;;;;;;13.72;72.80;102103.31;5011866;28;20446;-39
2022/11/10 06:53:46;;;;;;;16.88;3.95;;;;;;;13.77;72.83;102106.91;5012936;28;20121;-40
2022/11/10 06:56:12;;;;;;;20.33;3.80;;;;;;;13.34;74.96;102107.75;5012043;28;20060;-38
2022/11/10 06:58:37;;;;;;;20.05;3.63;;;;;;;13.50;74.33;102122.06;5011262;28;20058;-40
2022/11/10 07:01:02;;;;;;;17.55;3.50;;;;;;;13.54;74.33;102126.53;5010548;28;20422;-40
2022/11/10 07:03:28;;;;;;;15.05;3.05;;;;;;;13.97;72.68;102125.63;5010918;28;20390;-41
2022/11/10 07:05:53;;;;;;;21.98;3.70;;;;;;;13.80;72.96;102130.53;5011211;28;20473;-42
2022/11/10 07:08:18;;;;;;;16.05;3.30;;;;;;;13.93;72.58;102126.44;5010783;28;20033;-39
2022/11/10 07:10:50;;;;;;;12.10;2.78;;;;;;;14.12;72.09;102124.19;5010665;28;20054;-39
2022/11/10 07:13:18;;;;;;;22.92;3.60;;;;;;;13.85;72.87;102117.53;5010727;28;20521;-41
2022/11/10 07:15:43;;;;;;;14.43;3.28;;;;;;;13.99;73.03;102109.09;5010898;28;20033;-44
2022/11/10 07:18:09;;;;;;;15.30;3.17;;;;;;;14.04;72.67;102112.69;5010931;28;20030;-40
2022/11/10 07:20:34;;;;;;;18.15;3.72;;;;;;;14.04;72.58;102124.91;5010370;28;20026;-42
2022/11/10 07:23:02;;;;;;;19.05;3.50;;;;;;;13.95;73.29;102114.25;5010652;28;20548;-42
2022/11/10 07:25:30;;;;;;;19.23;3.28;;;;;;;13.98;72.92;102109.94;5010648;28;20036;-39
2022/11/10 07:27:59;;;;;;;13.93;3.25;;;;;;;14.13;72.25;102128.59;5010566;28;20022;-38
2022/11/10 07:30:26;;;;;;;19.77;3.80;;;;;;;13.71;73.83;102133.00;5011011;28;20030;-39
2022/11/10 07:32:59;;;;;;;20.70;3.50;;;;;;;13.81;74.03;102137.56;5011207;28;20022;-43
2022/11/10 07:35:27;;;;;;;20.70;3.70;;;;;;;14.23;72.16;102132.25;5011238;28;20033;-40
2022/11/10 07:37:52;;;;;;;17.25;3.10;;;;;;;14.17;72.45;102137.41;5012140;28;20062;-40
2022/11/10 07:40:18;;;;;;;19.17;3.55;;;;;;;14.38;71.94;102147.44;5011504;28;20061;-38
2022/11/10 07:42:43;;;;;;;16.17;3.22;;;;;;;14.35;72.11;102152.59;5012717;28;20079;-42
2022/11/10 07:45:09;;;;;;;17.33;3.25;;;;;;;14.41;72.43;102151.00;5012268;28;20030;-40
2022/11/10 07:47:34;;;;;;;16.30;3.28;;;;;;;14.59;71.80;102150.44;5016679;28;20049;-39
2022/11/10 07:49:59;;;;;;;21.23;3.03;;;;;;;14.59;71.95;102134.69;5019110;28;20047;-42
2022/11/10 07:52:24;;;;;;;15.77;2.78;;;;;;;14.71;71.16;102136.63;5018370;28;20124;-39
2022/11/10 07:54:50;;;;;;;13.60;2.60;;;;;;;15.03;70.99;102154.66;5018684;28;20034;-40
2022/11/10 07:57:15;;;;;;;14.77;2.80;;;;;;;14.97;69.99;102154.56;5014890;28;20026;-39
2022/11/10 07:59:40;;;;;;;14.30;2.70;;;;;;;15.33;69.77;102146.34;4997031;28;20029;-38
2022/11/10 08:02:10;;;;;;;12.30;2.78;;;;;;;15.16;70.04;102146.97;5014876;28;20096;-39
2022/11/10 08:04:35;;;;;;;16.13;2.63;;;;;;;15.31;69.27;102155.94;5014776;28;20084;-38
2022/11/10 08:07:00;;;;;;;14.05;2.70;;;;;;;15.62;68.81;102162.53;5014926;28;20441;-40
2022/11/10 08:09:25;;;;;;;15.10;2.63;;;;;;;15.47;68.99;102167.59;5015104;28;20041;-39
2022/11/10 08:11:51;;;;;;;13.65;2.92;;;;;;;15.55;68.24;102176.50;5016174;28;20049;-39
2022/11/10 08:14:16;;;;;;;14.38;2.63;;;;;;;15.05;69.47;102180.97;5016786;28;20029;-39
2022/11/10 08:16:41;;;;;;;15.30;3.30;;;;;;;15.29;67.91;102183.97;5017060;28;20036;-40
2022/11/10 08:19:07;;;;;;;10.98;2.70;;;;;;;15.15;68.92;102187.22;5016374;28;20443;-43
2022/11/10 08:21:32;;;;;;;11.73;2.75;;;;;;;15.33;68.83;102198.91;5016137;28;20028;-38
2022/11/10 08:23:57;;;;;;;12.30;2.80;;;;;;;15.18;69.21;102197.81;5013730;28;20569;-41
2022/11/10 08:26:23;;;;;;;13.88;2.92;;;;;;;15.14;69.11;102191.59;5014160;28;20087;-39
2022/11/10 08:28:48;;;;;;;15.13;3.20;;;;;;;15.27;68.93;102190.94;5014008;28;20104;-39
2022/11/10 08:31:13;;;;;;;14.38;2.65;;;;;;;15.08;68.99;102202.00;5013860;28;20026;-41
2022/11/10 08:33:39;;;;;;;13.27;3.00;;;;;;;15.06;69.33;102198.50;5014167;28;20044;-41
2022/11/10 08:36:04;;;;;;;9.63;2.70;;;;;;;15.21;69.24;102203.09;5014109;28;20033;-38
2022/11/10 08:38:29;;;;;;;12.95;3.10;;;;;;;14.94;69.65;102203.56;5014000;28;20034;-37
2022/11/10 08:40:56;;;;;;;16.58;2.90;;;;;;;15.14;69.42;102211.72;5014314;28;20326;-38
2022/11/10 08:43:22;;;;;;;15.30;2.90;;;;;;;15.29;69.26;102214.63;5014126;28;20022;-40
2022/11/10 08:45:47;;;;;;;11.65;2.67;;;;;;;15.36;68.41;102214.75;5014022;28;20032;-39
2022/11/10 08:48:16;;;;;;;13.25;2.90;;;;;;;15.46;68.86;102214.84;5014025;28;20018;-43
2022/11/10 08:50:41;;;;;;;15.93;3.10;;;;;;;15.50;68.32;102207.03;5013029;28;20022;-41
2022/11/10 08:53:10;;;;;;;11.10;3.08;;;;;;;15.67;68.27;102208.22;5013495;28;20040;-42
2022/11/10 08:55:35;;;;;;;16.67;2.83;;;;;;;15.60;68.08;102215.97;5013543;28;20036;-39
2022/11/10 08:58:02;;;;;;;16.48;3.15;;;;;;;15.74;67.93;102207.41;5013668;28;20326;-40
2022/11/10 09:00:29;;;;;;;12.32;2.70;;;;;;;15.78;67.77;102203.09;5012981;28;20030;-41
2022/11/10 09:02:56;;;;;;;12.25;3.00;;;;;;;15.86;67.63;102200.56;4995382;28;20108;-39
2022/11/10 09:05:22;;;;;;;14.65;2.63;;;;;;;15.95;67.60;102204.19;5013286;28;20315;-41
2022/11/10 09:07:49;;;;;;;15.15;2.97;;;;;;;15.54;68.48;102208.91;5012877;28;20501;-41
2022/11/10 09:10:14;;;;;;;9.13;2.60;;;;;;;15.55;68.48;102207.16;4995227;28;20026;-39
2022/11/10 09:12:41;;;;;;;14.10;2.72;;;;;;;16.01;67.82;102214.78;5012761;28;20553;-39
2022/11/10 09:15:08;;;;;;;15.55;2.95;;;;;;;15.58;68.38;102215.94;5012950;28;20076;-41
2022/11/10 09:17:34;;;;;;;12.85;2.70;;;;;;;16.23;67.07;102214.16;5013111;28;20064;-37
2022/11/10 09:19:59;;;;;;;15.63;2.78;;;;;;;15.94;67.23;102217.31;5015198;28;20057;-40
2022/11/10 09:22:25;;;;;;;14.35;2.80;;;;;;;16.17;67.14;102223.72;5013354;28;20021;-42
2022/11/10 09:24:51;;;;;;;10.88;2.75;;;;;;;16.25;67.72;102227.34;5013130;28;20053;-39
2022/11/10 09:27:16;;;;;;;10.15;2.65;;;;;;;16.09;68.07;102228.03;5012957;28;20502;-40
2022/11/10 09:29:41;;;;;;;15.25;2.58;;;;;;;16.27;67.20;102232.63;5012962;28;20074;-40
2022/11/10 09:32:07;;;;;;;14.52;2.60;;;;;;;16.23;67.37;102229.94;5012858;28;20024;-42
2022/11/10 09:34:32;;;;;;;12.40;2.78;;;;;;;16.67;66.41;102229.56;5013075;28;20040;-41
2022/11/10 09:36:57;;;;;;;14.77;2.60;;;;;;;16.40;66.84;102242.44;5013556;28;20334;-41
2022/11/10 09:39:23;;;;;;;18.25;2.65;;;;;;;16.71;65.72;102235.78;5012609;28;20625;-40
2022/11/10 09:41:48;;;;;;;13.13;2.60;;;;;;;16.73;66.01;102239.28;5013772;28;20338;-42
2022/11/10 09:44:35;;;;;;;10.27;2.53;;;;;;;17.09;65.30;102246.63;5012682;28;20474;-43
2022/11/10 09:47:08;;;;;;;15.02;2.95;;;;;;;16.67;65.80;102252.38;5012387;28;20049;-41
2022/11/10 09:49:59;;;;;;;12.95;2.42;;;;;;;17.20;64.93;102250.28;5012048;28;20025;-40
2022/11/10 09:52:28;;;;;;;17.02;2.80;;;;;;;16.90;65.65;102269.31;5011884;28;20671;-43
2022/11/10 09:55:00;;;;;;;13.70;2.55;;;;;;;16.98;65.23;102279.06;5011827;28;20033;-40
2022/11/10 09:57:26;;;;;;;15.57;2.70;;;;;;;17.09;64.73;102286.16;5011755;28;20505;-41
2022/11/10 09:59:52;;;;;;;14.80;2.80;;;;;;;16.88;65.39;102303.56;5011885;28;20026;-40
2022/11/10 10:02:38;;;;;;;14.02;2.60;;;;;;;16.79;66.47;102313.97;5011219;28;20078;-40
2022/11/10 10:05:45;;;;;;;11.85;2.47;;;;;;;17.26;64.66;102322.34;5011601;28;20030;-43
2022/11/10 10:08:23;;;;;;;14.07;2.60;;;;;;;17.22;64.70;102325.81;5000899;28;20107;-42
2022/11/10 10:11:48;;;;;;;14.25;2.67;;;;;;;17.29;64.83;102318.84;5010960;28;20026;-41
2022/11/10 10:14:27;;;;;;;14.27;2.45;;;;;;;17.20;64.87;102338.09;4931550;29;20045;-45
2022/11/10 10:17:07;;;;;;;13.10;2.50;;;;;;;17.49;64.49;102333.09;4931700;29;20175;-44
2022/11/10 10:19:52;;;;;;;12.93;2.70;;;;;;;17.80;63.87;102327.22;4994693;28;20038;-40
2022/11/10 10:22:37;;;;;;;14.20;2.67;;;;;;;17.72;63.48;102310.44;5010905;28;20070;-41
2022/11/10 10:25:12;;;;;;;14.27;2.43;;;;;;;18.06;63.05;102314.16;5011586;28;20030;-41
2022/11/10 10:27:40;;;;;;;10.35;2.33;;;;;;;18.07;62.55;102317.69;5011464;28;20827;-41
2022/11/10 10:30:17;;;;;;;10.68;2.40;;;;;;;18.12;62.29;102318.59;5011158;28;20025;-41
2022/11/10 10:32:43;;;;;;;12.80;2.38;;;;;;;17.71;62.51;102316.59;5011417;28;20034;-39
2022/11/10 10:35:13;;;;;;;10.90;2.50;;;;;;;18.15;62.11;102321.25;5011561;28;20025;-45
2022/11/10 10:37:49;;;;;;;12.93;2.20;;;;;;;17.77;63.11;102329.81;5011550;28;20478;-41
2022/11/10 10:40:20;;;;;;;11.80;2.47;;;;;;;17.62;63.28;102332.38;4993842;28;20108;-38
2022/11/10 10:42:46;;;;;;;14.00;2.30;;;;;;;17.43;63.85;102336.56;5013308;28;20049;-41
2022/11/10 10:45:20;;;;;;;10.63;2.25;;;;;;;17.85;62.81;102337.78;5013646;28;20030;-42
2022/11/10 10:47:48;;;;;;;14.90;3.00;;;;;;;17.82;62.70;102336.00;5013524;28;20029;-40
2022/11/10 10:50:34;;;;;;;11.00;2.50;;;;;;;17.69;63.52;102328.88;5012694;28;20022;-41
2022/11/10 10:53:14;;;;;;;13.98;2.42;;;;;;;17.95;62.79;102344.88;5012224;28;20025;-42
2022/11/10 10:55:46;;;;;;;9.02;2.35;;;;;;;17.54;63.23;102349.84;4993710;28;20022;-40
2022/11/10 10:58:24;;;;;;;14.43;2.53;;;;;;;17.22;63.86;102352.19;5012182;28;20030;-41
2022/11/10 11:01:18;;;;;;;10.82;2.30;;;;;;;17.36;64.06;102355.84;5013195;28;20064;-41
2022/11/10 11:03:49;;;;;;;13.13;2.55;;;;;;;17.57;63.43;102355.13;4995432;28;20120;-41
2022/11/10 11:06:15;;;;;;;12.30;2.45;;;;;;;17.33;63.94;102360.19;4997141;28;20022;-42
2022/11/10 11:08:56;;;;;;;10.95;2.45;;;;;;;17.50;64.01;102365.63;5014048;28;20069;-40
2022/11/10 11:11:37;;;;;;;12.77;2.40;;;;;;;18.09;62.21;102369.63;5012358;28;20028;-42
2022/11/10 11:14:18;;;;;;;14.57;2.63;;;;;;;17.84;62.87;102387.03;5010921;28;20030;-41
2022/11/10 11:16:52;;;;;;;9.93;2.60;;;;;;;17.93;62.51;102382.72;5010895;28;20079;-42
2022/11/10 11:19:20;;;;;;;11.25;2.45;;;;;;;17.79;62.16;102382.59;5010331;28;20034;-41
2022/11/10 11:22:03;;;;;;;12.55;2.53;;;;;;;18.35;61.37;102379.44;5010637;28;20026;-42
2022/11/10 11:24:53;;;;;;;10.20;2.20;;;;;;;18.33;61.11;102391.75;5010308;28;20029;-44
2022/11/10 11:27:56;;;;;;;13.30;2.65;;;;;;;18.43;60.95;102390.91;5010617;28;20269;-42
2022/11/10 11:30:23;;;;;;;10.52;2.85;;;;;;;18.27;60.85;102389.97;5010569;28;20479;-38
2022/11/10 11:32:54;;;;;;;12.52;2.78;;;;;;;18.43;61.18;102389.16;5010420;28;20246;-39
2022/11/10 11:35:41;;;;;;;15.20;2.70;;;;;;;18.44;60.41;102393.56;5010360;28;20030;-43